Time,TemperatureF,DewpointF,PressureIn,WindDirection,WindDirectionDegrees,WindSpeedMPH,WindSpeedGustMPH,Humidity,HourlyPrecipIn,Conditions,Clouds,dailyrainin,SoftwareType,DateUTC
2013-05-27 00:03:00,50.0,32.0,-100.00,WSW,245,0.0,10.0,53,0.00,,,-99.99,,2013-05-27 04:03:00,
2013-05-27 00:12:00,46.0,34.0,-100.00,East,84,0.0,10.0,63,0.00,,,-99.99,,2013-05-27 04:12:00,
2013-05-27 00:23:00,48.0,36.0,-100.00,SSW,208,0.0,10.0,67,0.00,,,-99.99,,2013-05-27 04:23:00,
2013-05-27 00:33:00,48.0,36.0,-100.00,East,80,0.0,10.0,64,0.00,,,-99.99,,2013-05-27 04:33:00,
2013-05-27 00:43:00,47.0,37.0,-100.00,SE,129,0.0,10.0,71,0.00,,,-99.99,,2013-05-27 04:43:00,
2013-05-27 00:52:00,46.0,37.0,-100.00,SSE,148,0.0,10.0,73,0.00,,,-99.99,,2013-05-27 04:52:00,
2013-05-27 01:02:00,46.0,39.0,-100.00,SE,141,0.0,10.0,78,0.00,,,-99.99,,2013-05-27 05:02:00,
2013-05-27 01:12:00,45.0,37.0,-100.00,East,79,0.0,10.0,80,0.00,,,-99.99,,2013-05-27 05:12:00,
2013-05-27 01:22:00,46.0,37.0,-100.00,WSW,254,0.0,10.0,75,0.00,,,-99.99,,2013-05-27 05:22:00,
2013-05-27 01:32:00,45.0,39.0,-100.00,SSW,207,0.0,10.0,80,0.00,,,-99.99,,2013-05-27 05:32:00,
2013-05-27 01:42:00,45.0,36.0,-100.00,WNW,293,0.0,10.0,75,0.00,,,-99.99,,2013-05-27 05:42:00,
2013-05-27 01:52:00,45.0,36.0,-100.00,WSW,256,1.0,10.0,71,0.00,,,-99.99,,2013-05-27 05:52:00,
2013-05-27 02:02:00,47.0,39.0,-100.00,ENE,76,0.0,10.0,76,0.00,,,-99.99,,2013-05-27 06:02:00,
2013-05-27 02:11:00,48.0,41.0,-100.00,East,84,0.0,10.0,78,0.00,,,-99.99,,2013-05-27 06:11:00,
2013-05-27 02:22:00,45.0,39.0,-100.00,East,97,0.0,10.0,82,0.00,,,-99.99,,2013-05-27 06:22:00,
2013-05-27 02:32:00,46.0,39.0,-100.00,SSE,152,0.0,10.0,81,0.00,,,-99.99,,2013-05-27 06:32:00,
2013-05-27 02:42:00,45.0,39.0,-100.00,East,81,0.0,10.0,84,0.00,,,-99.99,,2013-05-27 06:42:00,
2013-05-27 02:52:00,45.0,39.0,-100.00,ESE,111,0.0,10.0,86,0.00,,,-99.99,,2013-05-27 06:52:00,
2013-05-27 03:02:00,45.0,41.0,-100.00,SSW,204,0.0,10.0,88,0.00,,,-99.99,,2013-05-27 07:02:00,
2013-05-27 03:11:00,45.0,41.0,-100.00,SE,138,0.0,10.0,88,0.00,,,-99.99,,2013-05-27 07:11:00,
2013-05-27 03:21:00,45.0,39.0,-100.00,WSW,238,0.0,0.0,84,0.00,,,-99.99,,2013-05-27 07:21:00,
2013-05-27 03:32:00,45.0,41.0,-100.00,NE,49,0.0,0.0,88,0.00,,,-99.99,,2013-05-27 07:32:00,
2013-05-27 03:42:00,43.0,39.0,-100.00,West,264,0.0,0.0,90,0.00,,,-99.99,,2013-05-27 07:42:00,
2013-05-27 03:52:00,44.0,39.0,-100.00,WSW,256,0.0,0.0,86,0.00,,,-99.99,,2013-05-27 07:52:00,
2013-05-27 04:02:00,45.0,39.0,-100.00,WSW,248,0.0,0.0,84,0.00,,,-99.99,,2013-05-27 08:02:00,
2013-05-27 04:11:00,45.0,39.0,-100.00,WSW,249,1.0,1.0,85,0.00,,,-99.99,,2013-05-27 08:11:00,
2013-05-27 04:22:00,45.0,39.0,-100.00,WSW,254,0.0,1.0,84,0.00,,,-99.99,,2013-05-27 08:22:00,
2013-05-27 04:33:00,45.0,39.0,-100.00,SSW,208,0.0,1.0,86,0.00,,,-99.99,,2013-05-27 08:33:00,
2013-05-27 04:42:00,43.0,37.0,-100.00,ENE,62,0.0,1.0,85,0.00,,,-99.99,,2013-05-27 08:42:00,
2013-05-27 04:52:00,45.0,41.0,-100.00,SE,136,0.0,1.0,90,0.00,,,-99.99,,2013-05-27 08:52:00,
2013-05-27 05:02:00,43.0,39.0,-100.00,WNW,288,0.0,1.0,89,0.00,,,-99.99,,2013-05-27 09:02:00,
2013-05-27 05:11:00,43.0,39.0,-100.00,NW,309,1.0,1.0,91,0.00,,,-99.99,,2013-05-27 09:11:00,
2013-05-27 05:22:00,44.0,41.0,-100.00,NW,324,0.0,1.0,93,0.00,,,-99.99,,2013-05-27 09:22:00,
2013-05-27 05:33:00,43.0,39.0,-100.00,SSW,208,0.0,1.0,88,0.00,,,-99.99,,2013-05-27 09:33:00,
2013-05-27 05:42:00,44.0,41.0,-100.00,NE,43,0.0,1.0,91,0.00,,,-99.99,,2013-05-27 09:42:00,
2013-05-27 05:53:00,43.0,39.0,-100.00,North,4,0.0,1.0,91,0.00,,,-99.99,,2013-05-27 09:53:00,
2013-05-27 06:03:00,44.0,41.0,-100.00,West,273,0.0,1.0,91,0.00,,,-99.99,,2013-05-27 10:03:00,
2013-05-27 06:12:00,43.0,39.0,-100.00,WNW,290,1.0,1.0,89,0.00,,,-99.99,,2013-05-27 10:12:00,
2013-05-27 06:23:00,45.0,39.0,-100.00,West,272,2.0,2.0,85,0.00,,,-99.99,,2013-05-27 10:23:00,
2013-05-27 06:32:00,45.0,37.0,-100.00,West,278,1.0,2.0,78,0.00,,,-99.99,,2013-05-27 10:32:00,
2013-05-27 06:42:00,44.0,37.0,-100.00,West,262,1.0,2.0,82,0.00,,,-99.99,,2013-05-27 10:42:00,
2013-05-27 06:52:00,45.0,37.0,-100.00,West,262,2.0,2.0,78,0.00,,,-99.99,,2013-05-27 10:52:00,
2013-05-27 07:02:00,45.0,37.0,-100.00,West,279,2.0,2.0,78,0.00,,,-99.99,,2013-05-27 11:02:00,
2013-05-27 07:11:00,45.0,37.0,-100.00,WSW,256,2.0,2.0,80,0.00,,,-99.99,,2013-05-27 11:11:00,
2013-05-27 07:22:00,45.0,39.0,-100.00,WNW,290,2.0,4.0,82,0.00,,,-99.99,,2013-05-27 11:22:00,
2013-05-27 07:32:00,47.0,39.0,-100.00,West,264,2.0,4.0,76,0.00,,,-99.99,,2013-05-27 11:32:00,
2013-05-27 07:42:00,46.0,41.0,-100.00,NE,56,0.0,4.0,85,0.00,,,-99.99,,2013-05-27 11:42:00,
2013-05-27 07:52:00,45.0,41.0,-100.00,North,360,0.0,4.0,88,0.00,,,-99.99,,2013-05-27 11:52:00,
2013-05-27 08:01:00,46.0,41.0,-100.00,WNW,295,0.0,4.0,85,0.00,,,-99.99,,2013-05-27 12:01:00,
2013-05-27 08:11:00,49.0,43.0,-100.00,WNW,300,0.0,4.0,81,0.00,,,-99.99,,2013-05-27 12:11:00,
2013-05-27 08:22:00,48.0,41.0,-100.00,SSW,213,0.0,4.0,80,0.00,,,-99.99,,2013-05-27 12:22:00,
2013-05-27 08:32:00,48.0,41.0,-100.00,SSW,213,0.0,4.0,80,0.00,,,-99.99,,2013-05-27 12:32:00,
2013-05-27 08:42:00,49.0,41.0,-100.00,WSW,252,0.0,4.0,75,0.00,,,-99.99,,2013-05-27 12:42:00,
2013-05-27 08:52:00,49.0,39.0,-100.00,West,276,1.0,4.0,69,0.00,,,-99.99,,2013-05-27 12:52:00,
2013-05-27 09:02:00,49.0,41.0,-100.00,West,271,1.0,4.0,76,0.00,,,-99.99,,2013-05-27 13:02:00,
2013-05-27 09:11:00,49.0,39.0,-100.00,West,271,0.0,4.0,73,0.00,,,-99.99,,2013-05-27 13:11:00,
2013-05-27 09:22:00,49.0,41.0,-100.00,West,272,1.0,4.0,75,0.00,,,-99.99,,2013-05-27 13:22:00,
2013-05-27 09:32:00,50.0,39.0,-100.00,WNW,286,2.0,4.0,71,0.00,,,-99.99,,2013-05-27 13:32:00,
2013-05-27 09:42:00,49.0,39.0,-100.00,West,259,2.0,4.0,69,0.00,,,-99.99,,2013-05-27 13:42:00,
2013-05-27 09:52:00,51.0,39.0,-100.00,West,265,2.0,4.0,69,0.00,,,-99.99,,2013-05-27 13:52:00,
2013-05-27 10:02:00,50.0,37.0,-100.00,West,276,3.0,4.0,64,0.00,,,-99.99,,2013-05-27 14:02:00,
2013-05-27 10:11:00,53.0,41.0,-100.00,West,276,4.0,4.0,69,0.00,,,-99.99,,2013-05-27 14:11:00,
2013-05-27 10:22:00,53.0,43.0,-100.00,WSW,249,4.0,4.0,73,0.55,,,-99.99,,2013-05-27 14:22:00,
2013-05-27 10:32:00,51.0,43.0,-100.00,WNW,293,2.0,4.0,75,0.00,,,-99.99,,2013-05-27 14:32:00,
2013-05-27 10:42:00,50.0,41.0,-100.00,WNW,303,1.0,4.0,73,0.00,,,-99.99,,2013-05-27 14:42:00,
2013-05-27 10:52:00,51.0,41.0,-100.00,NW,319,2.0,4.0,71,7.36,,,-99.99,,2013-05-27 14:52:00,
2013-05-27 11:02:00,52.0,41.0,-100.00,WNW,297,1.0,4.0,69,0.00,,,-99.99,,2013-05-27 15:02:00,
2013-05-27 11:11:00,52.0,41.0,-100.00,WNW,299,1.0,4.0,69,0.00,,,-99.99,,2013-05-27 15:11:00,
2013-05-27 11:22:00,53.0,43.0,-100.00,WSW,248,1.0,4.0,69,0.00,,,-99.99,,2013-05-27 15:22:00,
2013-05-27 11:33:00,53.0,43.0,-100.00,WSW,238,1.0,4.0,71,9.06,,,-99.99,,2013-05-27 15:33:00,
2013-05-27 11:43:00,55.0,45.0,-100.00,West,268,1.0,4.0,69,0.00,,,-99.99,,2013-05-27 15:43:00,
2013-05-27 11:53:00,56.0,46.0,-100.00,West,279,2.0,4.0,72,0.00,,,-99.99,,2013-05-27 15:53:00,
2013-05-27 12:03:00,53.0,45.0,-100.00,WSW,244,1.0,4.0,75,10.79,,,-99.99,,2013-05-27 16:03:00,
2013-05-27 12:12:00,53.0,43.0,-100.00,NW,304,2.0,4.0,73,10.79,,,-99.99,,2013-05-27 16:12:00,
2013-05-27 12:23:00,54.0,45.0,-100.00,WNW,300,2.0,4.0,73,11.89,,,-99.99,,2013-05-27 16:23:00,
2013-05-27 12:33:00,55.0,46.0,-100.00,NW,326,1.0,4.0,77,12.48,,,-99.99,,2013-05-27 16:33:00,
2013-05-27 12:42:00,54.0,45.0,-100.00,NW,312,1.0,4.0,75,0.00,,,-99.99,,2013-05-27 16:42:00,
2013-05-27 12:52:00,54.0,45.0,-100.00,WNW,300,1.0,4.0,75,0.00,,,-99.99,,2013-05-27 16:52:00,
2013-05-27 13:02:00,53.0,45.0,-100.00,NNW,333,2.0,4.0,78,0.00,,,-99.99,,2013-05-27 17:02:00,
2013-05-27 13:12:00,54.0,46.0,-100.00,NNW,347,3.0,4.0,80,0.00,,,-99.99,,2013-05-27 17:12:00,
2013-05-27 13:22:00,53.0,46.0,-100.00,NNW,334,2.0,4.0,80,9.06,,,-99.99,,2013-05-27 17:22:00,
2013-05-27 13:32:00,53.0,46.0,-100.00,NNW,327,4.0,4.0,80,10.20,,,-99.99,,2013-05-27 17:32:00,
2013-05-27 13:43:00,55.0,48.0,-100.00,NNW,347,5.0,6.0,80,0.00,,,-99.99,,2013-05-27 17:43:00,
2013-05-27 13:52:00,55.0,46.0,-100.00,NW,313,4.0,6.0,78,0.00,,,-99.99,,2013-05-27 17:52:00,
2013-05-27 14:02:00,54.0,46.0,-100.00,NW,310,4.0,6.0,80,0.00,,,-99.99,,2013-05-27 18:02:00,
2013-05-27 14:11:00,55.0,48.0,-100.00,WNW,289,4.0,6.0,78,0.00,,,-99.99,,2013-05-27 18:11:00,
2013-05-27 14:22:00,55.0,46.0,-100.00,WNW,303,4.0,6.0,78,0.00,,,-99.99,,2013-05-27 18:22:00,
2013-05-27 14:32:00,56.0,48.0,-100.00,NW,316,5.0,6.0,78,0.00,,,-99.99,,2013-05-27 18:32:00,
2013-05-27 14:42:00,55.0,46.0,-100.00,NW,321,6.0,6.0,75,0.00,,,-99.99,,2013-05-27 18:42:00,
2013-05-27 14:52:00,57.0,46.0,-100.00,North,350,5.0,6.0,73,0.00,,,-99.99,,2013-05-27 18:52:00,
2013-05-27 15:01:00,57.0,48.0,-100.00,NW,320,5.0,6.0,73,0.00,,,-99.99,,2013-05-27 19:01:00,
2013-05-27 15:11:00,59.0,48.0,-100.00,NNW,347,7.0,10.0,71,0.00,,,-99.99,,2013-05-27 19:11:00,
2013-05-27 15:22:00,60.0,48.0,-100.00,NW,323,6.0,10.0,67,0.00,,,-99.99,,2013-05-27 19:22:00,
2013-05-27 15:32:00,60.0,48.0,-100.00,NNW,347,6.0,10.0,66,0.00,,,-99.99,,2013-05-27 19:32:00,
2013-05-27 15:42:00,61.0,46.0,-100.00,NNW,348,6.0,10.0,60,0.00,,,-99.99,,2013-05-27 19:42:00,
2013-05-27 15:52:00,62.0,45.0,-100.00,NNW,338,7.0,10.0,56,0.00,,,-99.99,,2013-05-27 19:52:00,
2013-05-27 16:02:00,62.0,46.0,-100.00,NNW,347,7.0,10.0,58,0.00,,,-99.99,,2013-05-27 20:02:00,
2013-05-27 16:11:00,62.0,46.0,-100.00,North,358,6.0,10.0,60,0.00,,,-99.99,,2013-05-27 20:11:00,
2013-05-27 16:22:00,62.0,46.0,-100.00,NW,309,5.0,10.0,60,0.00,,,-99.99,,2013-05-27 20:22:00,
2013-05-27 16:32:00,62.0,46.0,-100.00,NW,312,6.0,10.0,58,0.00,,,-99.99,,2013-05-27 20:32:00,
2013-05-27 16:42:00,62.0,46.0,-100.00,NW,309,6.0,10.0,59,0.00,,,-99.99,,2013-05-27 20:42:00,
2013-05-27 16:52:00,61.0,46.0,-100.00,NW,312,5.0,10.0,60,0.00,,,-99.99,,2013-05-27 20:52:00,
2013-05-27 17:01:00,63.0,48.0,-100.00,NW,316,4.0,10.0,62,0.00,,,-99.99,,2013-05-27 21:01:00,
2013-05-27 17:12:00,63.0,48.0,-100.00,WNW,303,5.0,10.0,60,0.00,,,-99.99,,2013-05-27 21:12:00,
2013-05-27 17:22:00,63.0,46.0,-100.00,WNW,290,4.0,10.0,58,0.00,,,-99.99,,2013-05-27 21:22:00,
2013-05-27 17:33:00,62.0,46.0,-100.00,WNW,283,3.0,10.0,60,0.00,,,-99.99,,2013-05-27 21:33:00,
2013-05-27 17:43:00,62.0,46.0,-100.00,WNW,290,4.0,10.0,60,0.00,,,-99.99,,2013-05-27 21:43:00,
2013-05-27 17:53:00,62.0,48.0,-100.00,NW,312,5.0,10.0,62,0.00,,,-99.99,,2013-05-27 21:53:00,
2013-05-27 18:02:00,62.0,46.0,-100.00,WNW,282,5.0,10.0,58,0.00,,,-99.99,,2013-05-27 22:02:00,
2013-05-27 18:13:00,62.0,45.0,-100.00,WNW,289,4.0,10.0,56,0.00,,,-99.99,,2013-05-27 22:13:00,
2013-05-27 18:23:00,63.0,46.0,-100.00,WNW,288,5.0,10.0,56,0.00,,,-99.99,,2013-05-27 22:23:00,
2013-05-27 18:33:00,62.0,45.0,-100.00,WNW,297,6.0,10.0,56,0.00,,,-99.99,,2013-05-27 22:33:00,
2013-05-27 18:42:00,62.0,45.0,-100.00,WNW,290,6.0,10.0,54,0.00,,,-99.99,,2013-05-27 22:42:00,
2013-05-27 18:52:00,62.0,45.0,-100.00,WNW,296,6.0,10.0,54,0.00,,,-99.99,,2013-05-27 22:52:00,
2013-05-27 19:02:00,63.0,45.0,-100.00,NW,304,5.0,10.0,54,0.00,,,-99.99,,2013-05-27 23:02:00,
2013-05-27 19:12:00,61.0,43.0,-100.00,WNW,292,6.0,10.0,53,0.00,,,-99.99,,2013-05-27 23:12:00,
2013-05-27 19:22:00,62.0,45.0,-100.00,West,279,6.0,10.0,54,0.00,,,-99.99,,2013-05-27 23:22:00,
2013-05-27 19:32:00,61.0,43.0,-100.00,WNW,302,4.0,10.0,54,0.00,,,-99.99,,2013-05-27 23:32:00,
2013-05-27 19:42:00,62.0,45.0,-100.00,WNW,283,5.0,10.0,54,0.00,,,-99.99,,2013-05-27 23:42:00,
2013-05-27 19:52:00,61.0,45.0,-100.00,West,279,5.0,10.0,56,0.00,,,-99.99,,2013-05-27 23:52:00,
2013-05-27 20:01:00,62.0,45.0,-100.00,WNW,286,6.0,10.0,55,0.00,,,-99.99,,2013-05-28 00:01:00,
2013-05-27 20:11:00,62.0,45.0,-100.00,WNW,288,7.0,10.0,55,0.00,,,-99.99,,2013-05-28 00:11:00,
2013-05-27 20:22:00,61.0,43.0,-100.00,West,275,8.0,10.0,55,0.00,,,-99.99,,2013-05-28 00:22:00,
2013-05-27 20:32:00,61.0,45.0,-100.00,WNW,288,9.0,12.0,55,0.00,,,-99.99,,2013-05-28 00:32:00,
2013-05-27 20:42:00,61.0,43.0,-100.00,WNW,286,7.0,12.0,54,0.00,,,-99.99,,2013-05-28 00:42:00,
2013-05-27 20:52:00,60.0,43.0,-100.00,WNW,293,7.0,12.0,55,0.00,,,-99.99,,2013-05-28 00:52:00,
2013-05-27 21:01:00,60.0,43.0,-100.00,West,272,7.0,12.0,55,0.00,,,-99.99,,2013-05-28 01:01:00,
2013-05-27 21:11:00,60.0,43.0,-100.00,WNW,295,7.0,12.0,56,0.00,,,-99.99,,2013-05-28 01:11:00,
2013-05-27 21:22:00,60.0,43.0,-100.00,WNW,295,7.0,12.0,56,0.00,,,-99.99,,2013-05-28 01:22:00,
2013-05-27 21:32:00,60.0,43.0,-100.00,WNW,289,8.0,12.0,55,0.00,,,-99.99,,2013-05-28 01:32:00,
2013-05-27 21:42:00,60.0,43.0,-100.00,WNW,296,7.0,12.0,55,0.00,,,-99.99,,2013-05-28 01:42:00,
2013-05-27 21:52:00,60.0,43.0,-100.00,WNW,299,7.0,12.0,55,0.00,,,-99.99,,2013-05-28 01:52:00,
2013-05-27 22:02:00,60.0,43.0,-100.00,WNW,295,6.0,12.0,55,0.00,,,-99.99,,2013-05-28 02:02:00,
2013-05-27 22:11:00,60.0,43.0,-100.00,WNW,296,6.0,12.0,55,0.00,,,-99.99,,2013-05-28 02:11:00,
2013-05-27 22:22:00,60.0,43.0,-100.00,NW,310,6.0,12.0,55,0.00,,,-99.99,,2013-05-28 02:22:00,
2013-05-27 22:32:00,59.0,43.0,-100.00,WNW,296,4.0,12.0,55,0.00,,,-99.99,,2013-05-28 02:32:00,
2013-05-27 22:42:00,59.0,43.0,-100.00,West,280,4.0,12.0,58,0.00,,,-99.99,,2013-05-28 02:42:00,
2013-05-27 22:52:00,59.0,45.0,-100.00,WNW,285,4.0,12.0,59,0.00,,,-99.99,,2013-05-28 02:52:00,
2013-05-27 23:01:00,61.0,46.0,-100.00,WNW,290,4.0,12.0,63,0.00,,,-99.99,,2013-05-28 03:01:00,
2013-05-27 23:11:00,59.0,48.0,-100.00,WNW,292,4.0,12.0,68,0.00,,,-99.99,,2013-05-28 03:11:00,
2013-05-27 23:22:00,58.0,50.0,-100.00,WSW,256,5.0,12.0,77,9.65,,,-99.99,,2013-05-28 03:22:00,
2013-05-27 23:33:00,58.0,52.0,-100.00,West,262,4.0,12.0,80,0.00,,,-99.99,,2013-05-28 03:33:00,
2013-05-27 23:43:00,58.0,52.0,-100.00,West,268,4.0,12.0,81,0.00,,,-99.99,,2013-05-28 03:43:00,
2013-05-27 23:53:00,58.0,52.0,-100.00,West,279,3.0,12.0,82,0.00,,,-99.99,,2013-05-28 03:53:00,